Latest Weather Observations for Darwin Airport

IDD60901

Issued at 11:01 pm CST Monday 27 April 2015 (issued every 10 minutes, with the page automatically refreshed every 10 minutes)

About weather observations | Map of Darwin area stations | Latest observations for Darwin area | Other Formats
Station Details ID: 014015 Name: DARWIN AIRPORT Lat: -12.42 Lon: 130.89 Height: 30.4 m
Data from the previous 72 hours. | See also: Recent months at Darwin Airport
Date/Time
CST
Tmp

°C
App
Tmp
°C
Dew
Point
°C
Rel
Hum
%
Delta-T

°C
Wind Press
QNH
hPa
Press
MSL
hPa
Rain
since
9 am
mm
Dir
 
Spd
km/h
Gust
km/h
Spd
kts
Gust
kts
27/11:00pm 23.8 25.6 18.8 73 3.2 SSW 7 9 4 5 1014.2 - 0.0
27/10:30pm 25.1 25.9 17.2 61 4.9 SSW 9 13 5 7 1014.4 - 0.0
27/10:00pm 23.1 26.1 18.5 75 2.9 CALM 0 0 0 0 1014.6 - 0.0
27/09:30pm 23.2 26.1 18.3 74 3.1 CALM 0 0 0 0 1014.4 - 0.0
27/09:00pm 23.3 26.0 17.7 71 3.5 CALM 0 0 0 0 1014.2 1013.9 0.0
27/08:30pm 23.8 25.4 16.8 65 4.3 N 4 6 2 3 1013.8 - 0.0
27/08:00pm 24.2 25.7 17.5 66 4.2 NE 6 7 3 4 1013.5 - 0.0
27/07:30pm 25.0 26.8 18.2 66 4.3 NE 6 7 3 4 1013.2 - 0.0
27/07:00pm 25.8 26.9 18.0 62 4.9 ENE 9 9 5 5 1013.0 - 0.0
27/06:00pm 28.9 28.6 15.4 44 8.3 ENE 11 13 6 7 1012.3 1012.0 0.0
27/05:30pm 30.3 28.7 12.7 34 10.4 ENE 13 15 7 8 1011.9 - 0.0
27/05:00pm 30.9 28.5 10.0 27 11.9 E 13 20 7 11 1011.4 - 0.0
27/04:30pm 31.2 28.1 8.8 25 12.5 E 15 20 8 11 1011.1 - 0.0
27/04:00pm 31.3 29.1 10.9 28 11.8 E 13 28 7 15 1010.9 - 0.0
27/03:30pm 30.9 28.5 11.5 30 11.3 E 15 22 8 12 1010.9 - 0.0
27/03:00pm 30.5 28.0 9.6 27 11.8 ESE 13 19 7 10 1011.1 1010.8 0.0
27/02:30pm 30.8 27.4 9.0 25 12.2 ESE 17 32 9 17 1011.3 - 0.0
27/02:00pm 30.8 27.0 9.0 25 12.2 E 19 32 10 17 1011.7 - 0.0
27/01:30pm 30.5 26.3 8.2 25 12.3 ESE 20 30 11 16 1012.1 - 0.0
27/01:00pm 30.4 26.6 9.1 26 11.9 ESE 19 28 10 15 1012.5 - 0.0
27/12:30pm 29.5 24.4 7.6 25 11.9 E 24 33 13 18 1012.8 - 0.0
27/12:00pm 29.6 23.7 9.1 27 11.4 E 30 43 16 23 1013.1 1012.8 0.0
27/11:00am 28.5 22.6 7.5 26 11.3 SE 28 37 15 20 1013.8 - 0.0
27/10:30am 27.5 21.4 6.4 26 11.1 SE 28 37 15 20 1014.3 - 0.0
27/10:00am 26.7 20.0 7.3 29 10.3 ESE 32 41 17 22 1014.7 - 0.0
27/09:30am 25.9 21.2 9.3 35 9.1 ESE 24 32 13 17 1014.6 - 0.0
27/09:00am 24.8 20.1 9.4 37 8.4 SE 24 30 13 16 1014.6 1014.3 0.0
27/08:30am 22.7 17.4 8.6 40 7.5 SE 26 33 14 18 1014.5 - 0.0
27/08:00am 21.6 18.1 8.8 44 6.8 SE 17 20 9 11 1014.1 - 0.0
27/07:30am 21.0 17.6 9.2 46 6.3 SE 17 20 9 11 1013.6 - 0.0
27/07:00am 20.9 17.1 9.0 46 6.3 SSE 19 24 10 13 1013.1 - 0.0
27/06:30am 21.4 16.6 8.7 44 6.7 SE 24 33 13 18 1012.7 - 0.0
27/05:30am 21.5 17.7 9.1 45 6.6 SE 19 26 10 14 1012.4 - 0.0
27/05:00am 21.7 17.9 9.2 44 6.7 SE 19 26 10 14 1012.4 - 0.0
27/04:30am 21.9 18.0 9.4 45 6.7 SE 20 26 11 14 1012.5 - 0.0
27/04:00am 21.8 17.7 10.0 47 6.4 SE 22 28 12 15 1012.5 - 0.0
27/03:30am 22.1 18.0 10.2 46 6.5 SE 22 30 12 16 1012.4 - 0.0
27/03:00am 22.5 19.0 10.3 46 6.7 SE 19 24 10 13 1012.4 1012.1 0.0
27/02:30am 22.5 19.7 11.4 49 6.2 SE 17 22 9 12 1012.4 - 0.0
27/02:00am 23.1 20.1 12.0 49 6.3 SSE 19 26 10 14 1012.6 - 0.0
27/01:30am 24.0 21.0 10.7 43 7.4 SSE 17 20 9 11 1012.9 - 0.0
27/01:00am 24.4 22.4 12.6 47 6.8 SSE 15 19 8 10 1013.1 - 0.0
27/12:30am 24.3 22.8 14.3 53 5.9 SSE 15 20 8 11 1013.4 - 0.0
 
Date/Time
CST
Tmp

°C
App
Tmp
°C
Dew
Point
°C
Rel
Hum
%
Delta-T

°C
Wind Press
QNH
hPa
Press
MSL
hPa
Rain
since
9 am
mm
Dir
 
Spd
km/h
Gust
km/h
Spd
kts
Gust
kts
26/11:30pm 24.9 23.9 14.7 53 6.1 SSE 13 15 7 8 1013.7 - 0.0
26/11:00pm 24.6 24.9 17.9 66 4.2 SSE 13 15 7 8 1013.8 - 0.0
26/10:30pm 24.5 25.1 18.5 69 3.8 SSE 13 13 7 7 1013.9 - 0.0
26/10:00pm 25.4 25.6 18.5 65 4.4 S 15 20 8 11 1014.1 - 0.0
26/09:30pm 23.2 24.9 18.4 74 3.0 E 7 7 4 4 1013.8 - 0.0
26/09:00pm 24.0 25.9 19.0 73 3.2 ENE 7 9 4 5 1013.7 1013.4 0.0
26/08:30pm 24.3 25.7 18.6 70 3.6 NE 9 9 5 5 1013.3 - 0.0
26/08:00pm 24.8 25.8 17.8 65 4.4 NE 9 11 5 6 1013.0 - 0.0
26/07:30pm 25.3 25.9 17.8 63 4.7 NE 11 13 6 7 1012.4 - 0.0
26/07:00pm 26.3 27.3 16.8 56 5.9 ENE 7 9 4 5 1012.0 - 0.0
26/06:30pm 27.9 28.5 17.6 53 6.5 ENE 11 11 6 6 1011.6 - 0.0
26/06:00pm 29.5 29.0 14.9 41 8.9 ENE 11 15 6 8 1011.1 1010.8 0.0
26/05:30pm 30.6 28.7 13.0 34 10.5 ENE 15 19 8 10 1010.9 - 0.0
26/05:00pm 31.3 28.7 12.1 30 11.3 E 17 20 9 11 1010.6 - 0.0
26/04:30pm 31.4 27.9 10.8 28 11.9 E 20 26 11 14 1010.5 - 0.0
26/04:00pm 31.6 27.9 10.3 27 12.2 E 20 32 11 17 1010.5 - 0.0
26/03:30pm 32.1 28.7 11.2 27 12.2 ENE 20 30 11 16 1010.6 - 0.0
26/03:00pm 31.2 27.9 11.0 28 11.7 ESE 19 24 10 13 1010.9 1010.6 0.0
26/02:30pm 31.8 28.3 10.9 27 12.1 E 20 33 11 18 1011.2 - 0.0
26/02:00pm 31.9 27.2 10.8 27 12.2 E 26 33 14 18 1011.5 - 0.0
26/01:30pm 31.1 27.2 9.5 26 12.2 ESE 20 37 11 20 1011.7 - 0.0
26/01:00pm 30.9 26.1 10.2 27 11.8 E 26 39 14 21 1012.2 - 0.0
26/12:30pm 30.2 26.2 10.6 29 11.2 SE 22 32 12 17 1012.7 - 0.0
26/12:00pm 30.0 26.2 11.3 31 10.8 SE 22 30 12 16 1013.1 1012.8 0.0
26/11:30am 29.9 26.6 12.8 35 10.1 ESE 22 30 12 16 1013.6 - 0.0
26/11:00am 28.9 25.6 13.9 39 9.0 ESE 24 32 13 17 1013.9 - 0.0
26/10:30am 28.2 24.8 12.4 37 9.2 SE 22 30 12 16 1014.1 - 0.0
26/10:00am 27.3 23.7 11.8 38 8.9 SE 22 30 12 16 1014.0 - 0.0
26/09:30am 26.7 23.1 11.7 39 8.6 ESE 22 32 12 17 1013.7 - 0.0
26/09:00am 25.6 21.9 11.5 41 8.0 SE 22 28 12 15 1013.3 1013.0 0.0
26/08:30am 24.2 21.5 13.6 51 6.2 SE 20 28 11 15 1013.1 - 0.0
26/08:00am 23.2 20.7 14.2 57 5.3 ESE 20 26 11 14 1013.0 - 0.0
26/07:30am 22.9 21.1 15.6 63 4.4 SE 19 26 10 14 1012.6 - 0.0
26/07:00am 22.7 21.8 15.9 65 4.1 SE 15 20 8 11 1012.0 - 0.0
26/06:30am 22.9 22.8 16.9 69 3.7 SE 13 15 7 8 1011.7 - 0.0
26/06:00am 23.6 23.5 17.0 66 4.1 SE 13 15 7 8 1011.4 1011.1 0.0
26/05:30am 23.7 25.4 20.2 81 2.3 SE 11 13 6 7 1011.2 - 0.0
26/05:00am 23.3 27.0 22.6 96 0.5 SE 7 9 4 5 1011.1 - 0.0
26/04:30am 23.1 26.6 22.2 95 0.6 E 7 7 4 4 1011.2 - 0.0
26/04:00am 23.6 27.1 22.9 96 0.5 E 9 13 5 7 1011.2 - 0.0
26/03:30am 23.7 27.1 22.7 94 0.7 ESE 9 9 5 5 1011.1 - 0.0
26/03:00am 24.3 27.9 23.1 93 0.8 SSE 9 11 5 6 1011.1 1010.8 0.0
26/02:30am 24.9 28.6 23.3 91 1.1 S 9 11 5 6 1011.3 - 0.0
26/02:00am 25.6 29.6 23.7 89 1.3 S 9 11 5 6 1011.4 - 0.0
26/01:30am 25.3 28.7 23.4 89 1.3 S 11 13 6 7 1011.7 - 0.0
26/01:00am 25.3 29.0 23.2 88 1.4 S 9 13 5 7 1012.0 - 0.0
26/12:30am 25.5 29.2 23.3 88 1.5 S 9 9 5 5 1012.1 - 0.0
26/12:00am 25.8 29.5 23.2 85 1.8 SSE 9 11 5 6 1011.9 1011.6 0.0
 
Date/Time
CST
Tmp

°C
App
Tmp
°C
Dew
Point
°C
Rel
Hum
%
Delta-T

°C
Wind Press
QNH
hPa
Press
MSL
hPa
Rain
since
9 am
mm
Dir
 
Spd
km/h
Gust
km/h
Spd
kts
Gust
kts
25/11:30pm 25.9 29.2 22.6 82 2.2 SSE 9 11 5 6 1012.0 - 0.0
25/11:00pm 26.0 29.6 22.4 80 2.4 S 7 9 4 5 1012.2 - 0.0
25/10:30pm 26.6 29.8 22.3 77 2.9 S 9 11 5 6 1012.3 - 0.0
25/10:00pm 26.6 29.7 21.5 73 3.4 S 7 15 4 8 1012.2 - 0.0
25/09:30pm 26.2 29.5 21.9 77 2.9 NE 7 9 4 5 1011.8 - 0.0
25/09:00pm 26.7 29.7 21.9 75 3.2 NNE 9 11 5 6 1011.5 1011.2 0.0
25/08:30pm 27.2 29.7 21.8 72 3.6 NNE 11 15 6 8 1011.3 - 0.0
25/08:00pm 27.6 29.8 21.9 71 3.8 NNE 13 17 7 9 1010.8 - 0.0
25/07:30pm 28.1 30.1 21.5 67 4.4 NNE 13 15 7 8 1010.5 - 0.0
25/07:00pm 28.6 30.5 21.4 65 4.8 NNE 13 17 7 9 1010.0 - 0.0
25/06:30pm 29.3 30.9 21.4 62 5.3 NNE 15 20 8 11 1009.6 - 0.0
25/06:00pm 30.2 31.3 21.3 59 6.0 NNE 17 20 9 11 1009.5 1009.2 0.0
25/05:30pm 31.0 32.0 21.0 55 6.7 N 17 20 9 11 1009.1 - 0.0
25/05:00pm 31.6 32.9 21.7 55 6.7 N 17 20 9 11 1008.7 - 0.0
25/04:30pm 31.4 32.4 21.1 54 6.9 N 17 24 9 13 1008.6 - 0.0
25/04:00pm 31.1 32.1 21.0 55 6.8 N 17 24 9 13 1008.4 - 0.0
25/03:30pm 31.5 32.2 21.6 55 6.7 N 20 30 11 16 1008.4 - 0.0
25/03:00pm 31.2 33.2 22.3 59 6.1 NNW 15 22 8 12 1008.6 1008.3 0.0
25/02:30pm 32.3 33.9 22.9 57 6.5 WNW 19 26 10 14 1008.8 - 0.0
25/02:00pm 33.0 32.9 17.0 38 10.2 E 13 26 7 14 1009.3 - 0.0
25/01:30pm 33.1 31.6 16.7 37 10.4 E 20 28 11 15 1009.6 - 0.0
25/01:00pm 33.2 32.9 17.3 38 10.2 E 15 26 8 14 1009.9 - 0.0
25/12:30pm 33.0 34.1 19.7 45 8.8 E 13 22 7 12 1010.2 - 0.0
25/12:00pm 32.0 33.1 20.5 50 7.7 E 15 19 8 10 1010.4 1010.1 0.0
25/11:30am 30.4 32.2 21.8 60 5.8 E 15 26 8 14 1010.9 - 0.0
25/11:00am 30.3 32.7 23.0 65 5.0 E 15 26 8 14 1011.3 - 0.0
25/10:30am 30.2 32.9 22.9 65 5.0 E 13 19 7 10 1011.5 - 0.0
25/10:00am 29.6 32.3 23.5 69 4.2 E 15 22 8 12 1011.5 - 0.0
25/09:30am 29.2 31.0 21.9 64 4.9 E 15 19 8 10 1011.4 - 0.0
25/09:00am 28.3 30.3 21.6 67 4.5 E 13 17 7 9 1011.2 1010.9 0.0
25/08:30am 27.4 30.3 23.2 78 2.9 ENE 13 17 7 9 1011.0 - 0.0
25/08:00am 26.3 30.0 23.2 83 2.1 E 9 13 5 7 1010.7 - 0.0
25/07:30am 25.1 28.7 23.0 88 1.4 E 9 13 5 7 1010.4 - 0.0
25/07:00am 24.5 28.0 22.9 91 1.1 ESE 9 11 5 6 1010.2 - 0.0
25/06:30am 24.4 27.5 22.9 91 1.0 E 11 11 6 6 1009.8 - 0.0
25/06:00am 23.8 27.1 22.6 93 0.8 E 9 11 5 6 1009.6 1009.3 0.0
25/05:30am 24.0 27.0 22.7 92 0.9 E 11 13 6 7 1009.6 - 0.0
25/05:00am 24.4 28.2 22.8 91 1.1 E 7 9 4 5 1009.6 - 0.0
25/04:30am 24.2 27.4 22.3 89 1.3 E 9 11 5 6 1009.7 - 0.0
25/04:00am 24.4 28.1 22.2 87 1.5 SSE 6 7 3 4 1009.9 - 0.0
25/03:30am 25.0 29.9 22.3 85 1.8 CALM 0 2 0 1 1009.9 - 0.0
25/03:00am 26.7 29.6 21.8 74 3.3 SW 9 11 5 6 1009.8 1009.5 0.0
25/02:30am 26.8 29.8 21.9 74 3.3 SW 9 11 5 6 1009.9 - 0.0
25/02:00am 27.5 29.7 21.8 71 3.8 SW 13 17 7 9 1009.8 - 0.0
25/01:30am 28.1 30.6 21.7 68 4.3 WSW 11 13 6 7 1010.1 - 0.0
25/01:00am 28.3 31.0 22.1 69 4.2 SW 11 13 6 7 1010.4 - 0.0
25/12:30am 28.4 31.3 21.7 67 4.5 SSW 9 11 5 6 1010.7 - 0.0
25/12:00am 28.6 31.5 21.8 66 4.6 WSW 9 11 5 6 1010.9 1010.6 0.0
 
Date/Time
CST
Tmp

°C
App
Tmp
°C
Dew
Point
°C
Rel
Hum
%
Delta-T

°C
Wind Press
QNH
hPa
Press
MSL
hPa
Rain
since
9 am
mm
Dir
 
Spd
km/h
Gust
km/h
Spd
kts
Gust
kts
24/11:30pm 28.6 31.9 21.9 67 4.5 WSW 7 9 4 5 1011.2 - 0.0

Latest Capital City Observations: Canberra | Sydney | Melbourne | Brisbane | Adelaide | Perth | Hobart | Darwin

Other Formats:

Comma delimited format used in spreadsheet applications
http://www.bom.gov.au/fwo/IDD60901/IDD60901.94120.axf

JavaScript Object Notation format (JSON) in row-major order
http://www.bom.gov.au/fwo/IDD60901/IDD60901.94120.json